sensor_id;sensor_type;location;lat;lon;timestamp;temperature;humidity
70170;DHT22;57543;45.442;9.212;2022-11-20T00:01:19;10.86;73.41
70170;DHT22;57543;45.442;9.212;2022-11-20T00:04:22;10.83;72.95
70170;DHT22;57543;45.442;9.212;2022-11-20T00:07:26;10.70;72.80
70170;DHT22;57543;45.442;9.212;2022-11-20T00:10:30;10.63;72.69
70170;DHT22;57543;45.442;9.212;2022-11-20T00:13:34;10.55;72.66
70170;DHT22;57543;45.442;9.212;2022-11-20T00:16:38;10.44;72.53
70170;DHT22;57543;45.442;9.212;2022-11-20T00:19:42;10.28;72.38
70170;DHT22;57543;45.442;9.212;2022-11-20T00:22:46;10.15;72.49
70170;DHT22;57543;45.442;9.212;2022-11-20T00:25:50;10.03;72.96
70170;DHT22;57543;45.442;9.212;2022-11-20T00:29:03;10.13;72.95
70170;DHT22;57543;45.442;9.212;2022-11-20T00:32:06;10.18;71.78
70170;DHT22;57543;45.442;9.212;2022-11-20T00:35:10;10.03;71.40
70170;DHT22;57543;45.442;9.212;2022-11-20T00:38:13;9.96;71.83
70170;DHT22;57543;45.442;9.212;2022-11-20T00:41:16;9.79;72.41
70170;DHT22;57543;45.442;9.212;2022-11-20T00:44:20;9.73;72.82
70170;DHT22;57543;45.442;9.212;2022-11-20T00:47:24;9.55;73.48
70170;DHT22;57543;45.442;9.212;2022-11-20T00:50:28;9.51;73.70
70170;DHT22;57543;45.442;9.212;2022-11-20T00:53:31;9.56;73.43
70170;DHT22;57543;45.442;9.212;2022-11-20T00:56:35;9.49;73.83
70170;DHT22;57543;45.442;9.212;2022-11-20T00:59:39;9.41;74.04
70170;DHT22;57543;45.442;9.212;2022-11-20T01:02:43;9.36;74.08
70170;DHT22;57543;45.442;9.212;2022-11-20T01:05:46;9.32;74.11
70170;DHT22;57543;45.442;9.212;2022-11-20T01:08:53;9.31;73.89
70170;DHT22;57543;45.442;9.212;2022-11-20T01:11:57;9.15;74.33
70170;DHT22;57543;45.442;9.212;2022-11-20T01:15:02;9.21;74.46
70170;DHT22;57543;45.442;9.212;2022-11-20T01:18:06;9.13;74.49
70170;DHT22;57543;45.442;9.212;2022-11-20T01:24:22;9.01;75.00
70170;DHT22;57543;45.442;9.212;2022-11-20T01:27:25;8.93;74.80
70170;DHT22;57543;45.442;9.212;2022-11-20T01:30:29;8.97;75.73
70170;DHT22;57543;45.442;9.212;2022-11-20T01:33:33;9.06;75.99
70170;DHT22;57543;45.442;9.212;2022-11-20T01:36:38;9.07;75.49
70170;DHT22;57543;45.442;9.212;2022-11-20T01:39:42;9.08;75.36
70170;DHT22;57543;45.442;9.212;2022-11-20T01:42:56;9.17;74.83
70170;DHT22;57543;45.442;9.212;2022-11-20T01:46:22;9.23;74.27
70170;DHT22;57543;45.442;9.212;2022-11-20T01:49:36;9.10;73.85
70170;DHT22;57543;45.442;9.212;2022-11-20T01:52:56;9.08;73.88
70170;DHT22;57543;45.442;9.212;2022-11-20T01:56:02;9.00;73.82
70170;DHT22;57543;45.442;9.212;2022-11-20T01:59:10;8.97;73.78
70170;DHT22;57543;45.442;9.212;2022-11-20T02:02:16;8.91;73.68
70170;DHT22;57543;45.442;9.212;2022-11-20T02:08:37;8.83;74.14
70170;DHT22;57543;45.442;9.212;2022-11-20T02:11:41;8.87;74.77
70170;DHT22;57543;45.442;9.212;2022-11-20T02:14:45;8.89;74.98
70170;DHT22;57543;45.442;9.212;2022-11-20T02:17:48;8.84;74.83
70170;DHT22;57543;45.442;9.212;2022-11-20T02:20:57;8.83;74.66
70170;DHT22;57543;45.442;9.212;2022-11-20T02:24:08;8.87;74.63
70170;DHT22;57543;45.442;9.212;2022-11-20T02:27:14;8.86;74.63
70170;DHT22;57543;45.442;9.212;2022-11-20T02:30:18;8.86;74.92
70170;DHT22;57543;45.442;9.212;2022-11-20T02:33:22;8.86;74.81
70170;DHT22;57543;45.442;9.212;2022-11-20T02:36:27;8.91;74.62
70170;DHT22;57543;45.442;9.212;2022-11-20T02:39:30;8.79;74.57
70170;DHT22;57543;45.442;9.212;2022-11-20T02:42:35;8.72;74.76
70170;DHT22;57543;45.442;9.212;2022-11-20T02:45:39;8.72;74.98
70170;DHT22;57543;45.442;9.212;2022-11-20T02:48:43;8.70;74.74
70170;DHT22;57543;45.442;9.212;2022-11-20T02:51:47;8.72;74.84
70170;DHT22;57543;45.442;9.212;2022-11-20T02:54:50;8.76;74.95
70170;DHT22;57543;45.442;9.212;2022-11-20T02:57:54;8.86;75.06
70170;DHT22;57543;45.442;9.212;2022-11-20T03:00:58;8.86;74.61
70170;DHT22;57543;45.442;9.212;2022-11-20T03:04:01;8.84;74.57
70170;DHT22;57543;45.442;9.212;2022-11-20T03:07:05;8.79;74.30
70170;DHT22;57543;45.442;9.212;2022-11-20T03:10:09;8.83;74.24
70170;DHT22;57543;45.442;9.212;2022-11-20T03:13:13;8.81;73.52
70170;DHT22;57543;45.442;9.212;2022-11-20T03:16:18;8.89;73.33
70170;DHT22;57543;45.442;9.212;2022-11-20T03:19:23;8.99;72.17
70170;DHT22;57543;45.442;9.212;2022-11-20T03:22:29;8.80;72.13
70170;DHT22;57543;45.442;9.212;2022-11-20T03:25:33;8.75;72.18
70170;DHT22;57543;45.442;9.212;2022-11-20T03:28:37;8.63;72.10
70170;DHT22;57543;45.442;9.212;2022-11-20T03:31:41;8.61;71.79
70170;DHT22;57543;45.442;9.212;2022-11-20T03:34:44;8.58;71.77
70170;DHT22;57543;45.442;9.212;2022-11-20T03:37:48;8.56;71.58
70170;DHT22;57543;45.442;9.212;2022-11-20T03:40:58;8.46;71.46
70170;DHT22;57543;45.442;9.212;2022-11-20T03:44:05;8.42;71.46
70170;DHT22;57543;45.442;9.212;2022-11-20T03:47:09;8.28;71.55
70170;DHT22;57543;45.442;9.212;2022-11-20T03:50:13;8.24;71.48
70170;DHT22;57543;45.442;9.212;2022-11-20T03:53:19;8.07;71.77
70170;DHT22;57543;45.442;9.212;2022-11-20T03:56:26;8.13;72.07
70170;DHT22;57543;45.442;9.212;2022-11-20T03:59:30;8.01;72.30
70170;DHT22;57543;45.442;9.212;2022-11-20T04:02:33;7.91;72.65
70170;DHT22;57543;45.442;9.212;2022-11-20T04:05:37;7.94;72.81
70170;DHT22;57543;45.442;9.212;2022-11-20T04:08:42;7.99;72.84
70170;DHT22;57543;45.442;9.212;2022-11-20T04:11:45;8.01;72.82
70170;DHT22;57543;45.442;9.212;2022-11-20T04:14:49;8.00;72.97
70170;DHT22;57543;45.442;9.212;2022-11-20T04:17:53;8.08;72.78
70170;DHT22;57543;45.442;9.212;2022-11-20T04:20:58;8.10;73.04
70170;DHT22;57543;45.442;9.212;2022-11-20T04:24:02;8.08;72.91
70170;DHT22;57543;45.442;9.212;2022-11-20T04:27:06;8.01;73.09
70170;DHT22;57543;45.442;9.212;2022-11-20T04:30:10;8.03;73.17
70170;DHT22;57543;45.442;9.212;2022-11-20T04:33:14;8.01;73.18
70170;DHT22;57543;45.442;9.212;2022-11-20T04:36:20;7.86;73.71
70170;DHT22;57543;45.442;9.212;2022-11-20T04:39:24;7.85;73.93
70170;DHT22;57543;45.442;9.212;2022-11-20T04:42:27;7.89;73.78
70170;DHT22;57543;45.442;9.212;2022-11-20T04:45:34;7.93;73.52
70170;DHT22;57543;45.442;9.212;2022-11-20T04:48:37;8.07;73.41
70170;DHT22;57543;45.442;9.212;2022-11-20T04:51:41;8.08;73.28
70170;DHT22;57543;45.442;9.212;2022-11-20T04:54:45;8.13;73.05
70170;DHT22;57543;45.442;9.212;2022-11-20T04:57:51;8.10;72.83
70170;DHT22;57543;45.442;9.212;2022-11-20T05:01:06;8.01;73.00
70170;DHT22;57543;45.442;9.212;2022-11-20T05:04:10;8.04;73.06
70170;DHT22;57543;45.442;9.212;2022-11-20T05:07:14;8.03;73.08
70170;DHT22;57543;45.442;9.212;2022-11-20T05:10:18;8.03;72.88
70170;DHT22;57543;45.442;9.212;2022-11-20T05:13:21;8.00;72.81
70170;DHT22;57543;45.442;9.212;2022-11-20T05:16:25;7.97;72.80
70170;DHT22;57543;45.442;9.212;2022-11-20T05:19:29;8.00;72.84
70170;DHT22;57543;45.442;9.212;2022-11-20T05:22:33;7.97;72.78
70170;DHT22;57543;45.442;9.212;2022-11-20T05:25:37;7.93;73.14
70170;DHT22;57543;45.442;9.212;2022-11-20T05:28:41;7.87;73.10
70170;DHT22;57543;45.442;9.212;2022-11-20T05:31:45;7.80;73.45
70170;DHT22;57543;45.442;9.212;2022-11-20T05:34:49;7.76;73.71
70170;DHT22;57543;45.442;9.212;2022-11-20T05:37:52;7.71;73.88
70170;DHT22;57543;45.442;9.212;2022-11-20T05:41:07;7.72;73.98
70170;DHT22;57543;45.442;9.212;2022-11-20T05:44:13;7.69;74.10
70170;DHT22;57543;45.442;9.212;2022-11-20T05:47:16;7.65;74.25
70170;DHT22;57543;45.442;9.212;2022-11-20T05:50:20;7.61;74.40
70170;DHT22;57543;45.442;9.212;2022-11-20T05:53:24;7.69;74.29
70170;DHT22;57543;45.442;9.212;2022-11-20T05:56:29;7.68;74.16
70170;DHT22;57543;45.442;9.212;2022-11-20T05:59:32;7.76;74.01
70170;DHT22;57543;45.442;9.212;2022-11-20T06:02:36;7.79;74.06
70170;DHT22;57543;45.442;9.212;2022-11-20T06:05:40;7.83;73.85
70170;DHT22;57543;45.442;9.212;2022-11-20T06:08:45;7.82;73.80
70170;DHT22;57543;45.442;9.212;2022-11-20T06:11:49;7.83;73.86
70170;DHT22;57543;45.442;9.212;2022-11-20T06:14:52;7.78;74.17
70170;DHT22;57543;45.442;9.212;2022-11-20T06:17:56;7.68;74.38
70170;DHT22;57543;45.442;9.212;2022-11-20T06:21:15;7.66;74.59
70170;DHT22;57543;45.442;9.212;2022-11-20T06:24:18;7.66;74.58
70170;DHT22;57543;45.442;9.212;2022-11-20T06:27:22;7.61;74.66
70170;DHT22;57543;45.442;9.212;2022-11-20T06:30:26;7.71;74.48
70170;DHT22;57543;45.442;9.212;2022-11-20T06:33:30;7.75;74.31
70170;DHT22;57543;45.442;9.212;2022-11-20T06:36:33;7.79;74.07
70170;DHT22;57543;45.442;9.212;2022-11-20T06:39:37;7.76;74.04
70170;DHT22;57543;45.442;9.212;2022-11-20T06:42:41;7.75;74.06
70170;DHT22;57543;45.442;9.212;2022-11-20T06:45:44;7.72;74.11
70170;DHT22;57543;45.442;9.212;2022-11-20T06:48:49;7.82;74.06
70170;DHT22;57543;45.442;9.212;2022-11-20T06:51:53;7.83;73.91
70170;DHT22;57543;45.442;9.212;2022-11-20T06:54:57;7.83;73.73
70170;DHT22;57543;45.442;9.212;2022-11-20T06:58:00;7.86;73.88
70170;DHT22;57543;45.442;9.212;2022-11-20T07:01:06;7.73;74.67
70170;DHT22;57543;45.442;9.212;2022-11-20T07:04:10;7.71;75.00
70170;DHT22;57543;45.442;9.212;2022-11-20T07:07:14;7.78;74.69
70170;DHT22;57543;45.442;9.212;2022-11-20T07:10:17;7.89;74.00
70170;DHT22;57543;45.442;9.212;2022-11-20T07:13:21;8.03;73.62
70170;DHT22;57543;45.442;9.212;2022-11-20T07:16:24;8.38;72.47
70170;DHT22;57543;45.442;9.212;2022-11-20T07:19:28;8.63;71.31
70170;DHT22;57543;45.442;9.212;2022-11-20T07:22:31;8.91;70.93
70170;DHT22;57543;45.442;9.212;2022-11-20T07:25:35;9.27;69.67
70170;DHT22;57543;45.442;9.212;2022-11-20T07:28:39;9.63;69.00
70170;DHT22;57543;45.442;9.212;2022-11-20T07:31:42;10.15;67.07
70170;DHT22;57543;45.442;9.212;2022-11-20T07:34:46;10.92;64.42
70170;DHT22;57543;45.442;9.212;2022-11-20T07:37:50;11.97;61.12
70170;DHT22;57543;45.442;9.212;2022-11-20T07:40:54;13.45;56.60
70170;DHT22;57543;45.442;9.212;2022-11-20T07:43:59;15.25;51.69
70170;DHT22;57543;45.442;9.212;2022-11-20T07:47:02;16.95;47.27
70170;DHT22;57543;45.442;9.212;2022-11-20T07:50:06;18.43;43.94
70170;DHT22;57543;45.442;9.212;2022-11-20T07:53:11;19.63;41.05
70170;DHT22;57543;45.442;9.212;2022-11-20T07:56:16;20.49;39.44
70170;DHT22;57543;45.442;9.212;2022-11-20T07:59:20;21.18;38.27
70170;DHT22;57543;45.442;9.212;2022-11-20T08:02:23;21.62;37.36
70170;DHT22;57543;45.442;9.212;2022-11-20T08:05:28;21.89;36.86
70170;DHT22;57543;45.442;9.212;2022-11-20T08:08:32;22.12;36.17
70170;DHT22;57543;45.442;9.212;2022-11-20T08:11:35;22.32;36.03
70170;DHT22;57543;45.442;9.212;2022-11-20T08:14:58;22.31;35.71
70170;DHT22;57543;45.442;9.212;2022-11-20T08:18:09;22.12;36.13
70170;DHT22;57543;45.442;9.212;2022-11-20T08:21:14;21.53;36.86
70170;DHT22;57543;45.442;9.212;2022-11-20T08:24:18;21.52;37.33
70170;DHT22;57543;45.442;9.212;2022-11-20T08:27:22;21.49;37.35
70170;DHT22;57543;45.442;9.212;2022-11-20T08:30:26;21.39;37.54
70170;DHT22;57543;45.442;9.212;2022-11-20T08:33:30;21.05;38.28
70170;DHT22;57543;45.442;9.212;2022-11-20T08:36:36;20.65;39.08
70170;DHT22;57543;45.442;9.212;2022-11-20T08:39:39;20.49;39.65
70170;DHT22;57543;45.442;9.212;2022-11-20T08:42:50;20.17;40.25
70170;DHT22;57543;45.442;9.212;2022-11-20T08:45:56;19.96;40.70
70170;DHT22;57543;45.442;9.212;2022-11-20T08:49:00;19.94;40.83
70170;DHT22;57543;45.442;9.212;2022-11-20T08:52:04;19.87;41.18
70170;DHT22;57543;45.442;9.212;2022-11-20T08:55:08;19.53;41.46
70170;DHT22;57543;45.442;9.212;2022-11-20T08:58:12;19.52;41.34
70170;DHT22;57543;45.442;9.212;2022-11-20T09:01:16;19.14;42.46
70170;DHT22;57543;45.442;9.212;2022-11-20T09:04:20;19.01;42.63
70170;DHT22;57543;45.442;9.212;2022-11-20T09:07:24;18.97;42.92
70170;DHT22;57543;45.442;9.212;2022-11-20T09:10:27;18.67;43.90
70170;DHT22;57543;45.442;9.212;2022-11-20T09:13:32;17.94;44.62
70170;DHT22;57543;45.442;9.212;2022-11-20T09:16:36;17.77;45.61
70170;DHT22;57543;45.442;9.212;2022-11-20T09:19:40;17.70;46.14
70170;DHT22;57543;45.442;9.212;2022-11-20T09:22:44;17.32;46.58
70170;DHT22;57543;45.442;9.212;2022-11-20T09:25:47;17.31;46.53
70170;DHT22;57543;45.442;9.212;2022-11-20T09:28:51;17.35;44.88
70170;DHT22;57543;45.442;9.212;2022-11-20T09:31:55;17.38;44.20
70170;DHT22;57543;45.442;9.212;2022-11-20T09:34:59;17.39;43.37
70170;DHT22;57543;45.442;9.212;2022-11-20T09:38:06;17.34;44.16
70170;DHT22;57543;45.442;9.212;2022-11-20T09:41:33;17.06;45.18
70170;DHT22;57543;45.442;9.212;2022-11-20T09:54:35;16.17;49.50
70170;DHT22;57543;45.442;9.212;2022-11-20T09:57:42;16.42;48.87
70170;DHT22;57543;45.442;9.212;2022-11-20T10:00:48;16.59;46.09
70170;DHT22;57543;45.442;9.212;2022-11-20T10:04:16;16.77;45.81
70170;DHT22;57543;45.442;9.212;2022-11-20T10:07:27;16.93;45.97
70170;DHT22;57543;45.442;9.212;2022-11-20T10:10:38;17.06;45.89
70170;DHT22;57543;45.442;9.212;2022-11-20T10:13:53;17.14;45.97
70170;DHT22;57543;45.442;9.212;2022-11-20T10:17:09;16.90;45.89
70170;DHT22;57543;45.442;9.212;2022-11-20T10:20:29;16.74;46.15
70170;DHT22;57543;45.442;9.212;2022-11-20T10:23:52;16.22;47.69
70170;DHT22;57543;45.442;9.212;2022-11-20T10:30:44;16.85;45.68
70170;DHT22;57543;45.442;9.212;2022-11-20T10:33:49;16.99;45.73
70170;DHT22;57543;45.442;9.212;2022-11-20T10:37:06;17.19;45.80
70170;DHT22;57543;45.442;9.212;2022-11-20T10:40:35;17.31;45.21
70170;DHT22;57543;45.442;9.212;2022-11-20T10:43:41;17.52;44.82
70170;DHT22;57543;45.442;9.212;2022-11-20T10:46:45;17.46;43.52
70170;DHT22;57543;45.442;9.212;2022-11-20T10:49:53;17.70;43.26
70170;DHT22;57543;45.442;9.212;2022-11-20T10:56:25;17.86;43.65
70170;DHT22;57543;45.442;9.212;2022-11-20T10:59:59;17.96;42.84
70170;DHT22;57543;45.442;9.212;2022-11-20T11:03:23;18.32;43.16
70170;DHT22;57543;45.442;9.212;2022-11-20T11:06:33;18.93;42.29
70170;DHT22;57543;45.442;9.212;2022-11-20T11:09:43;19.41;41.27
70170;DHT22;57543;45.442;9.212;2022-11-20T11:12:47;20.15;40.53
70170;DHT22;57543;45.442;9.212;2022-11-20T11:15:54;21.20;37.95
70170;DHT22;57543;45.442;9.212;2022-11-20T11:19:13;21.98;36.49
70170;DHT22;57543;45.442;9.212;2022-11-20T11:22:17;23.19;34.46
70170;DHT22;57543;45.442;9.212;2022-11-20T11:25:32;24.01;33.00
70170;DHT22;57543;45.442;9.212;2022-11-20T11:28:39;24.36;32.42
70170;DHT22;57543;45.442;9.212;2022-11-20T11:31:43;24.76;31.53
70170;DHT22;57543;45.442;9.212;2022-11-20T11:35:26;24.58;31.29
70170;DHT22;57543;45.442;9.212;2022-11-20T11:38:34;24.14;31.81
70170;DHT22;57543;45.442;9.212;2022-11-20T11:41:38;23.56;32.49
70170;DHT22;57543;45.442;9.212;2022-11-20T11:44:47;22.63;34.75
70170;DHT22;57543;45.442;9.212;2022-11-20T11:48:09;21.98;35.53
70170;DHT22;57543;45.442;9.212;2022-11-20T11:51:20;21.43;36.30
70170;DHT22;57543;45.442;9.212;2022-11-20T11:54:55;21.08;36.70
70170;DHT22;57543;45.442;9.212;2022-11-20T12:01:30;20.62;38.02
70170;DHT22;57543;45.442;9.212;2022-11-20T12:04:46;20.52;37.64
70170;DHT22;57543;45.442;9.212;2022-11-20T12:08:40;20.29;37.78
70170;DHT22;57543;45.442;9.212;2022-11-20T12:11:53;20.07;39.24
70170;DHT22;57543;45.442;9.212;2022-11-20T12:14:59;20.01;38.56
70170;DHT22;57543;45.442;9.212;2022-11-20T12:18:09;20.00;38.97
70170;DHT22;57543;45.442;9.212;2022-11-20T12:21:31;20.05;38.46
70170;DHT22;57543;45.442;9.212;2022-11-20T12:24:47;20.01;38.80
70170;DHT22;57543;45.442;9.212;2022-11-20T12:31:36;19.80;39.65
70170;DHT22;57543;45.442;9.212;2022-11-20T12:35:03;19.84;38.81
70170;DHT22;57543;45.442;9.212;2022-11-20T12:48:47;19.17;40.17
70170;DHT22;57543;45.442;9.212;2022-11-20T12:55:42;19.42;40.16
70170;DHT22;57543;45.442;9.212;2022-11-20T13:02:26;19.77;39.08
70170;DHT22;57543;45.442;9.212;2022-11-20T13:08:56;20.08;38.29
70170;DHT22;57543;45.442;9.212;2022-11-20T13:12:58;20.22;37.23
70170;DHT22;57543;45.442;9.212;2022-11-20T13:15:48;20.35;37.54
70170;DHT22;57543;45.442;9.212;2022-11-20T13:18:55;20.39;38.30
70170;DHT22;57543;45.442;9.212;2022-11-20T13:21:59;20.20;37.62
70170;DHT22;57543;45.442;9.212;2022-11-20T13:25:02;20.31;37.15
70170;DHT22;57543;45.442;9.212;2022-11-20T13:31:28;20.62;35.75
70170;DHT22;57543;45.442;9.212;2022-11-20T13:34:34;20.22;36.36
70170;DHT22;57543;45.442;9.212;2022-11-20T13:37:38;20.38;35.88
70170;DHT22;57543;45.442;9.212;2022-11-20T13:40:52;20.08;36.48
70170;DHT22;57543;45.442;9.212;2022-11-20T13:47:23;20.31;36.15
70170;DHT22;57543;45.442;9.212;2022-11-20T13:50:54;20.41;36.16
70170;DHT22;57543;45.442;9.212;2022-11-20T13:54:42;20.53;35.23
70170;DHT22;57543;45.442;9.212;2022-11-20T13:57:59;20.29;35.27
70170;DHT22;57543;45.442;9.212;2022-11-20T14:01:10;20.32;35.77
70170;DHT22;57543;45.442;9.212;2022-11-20T14:04:19;20.28;35.24
70170;DHT22;57543;45.442;9.212;2022-11-20T14:07:27;20.31;37.37
70170;DHT22;57543;45.442;9.212;2022-11-20T14:10:34;20.43;36.36
70170;DHT22;57543;45.442;9.212;2022-11-20T14:13:39;20.26;36.21
70170;DHT22;57543;45.442;9.212;2022-11-20T14:16:43;20.07;35.42
70170;DHT22;57543;45.442;9.212;2022-11-20T14:19:49;20.07;34.93
70170;DHT22;57543;45.442;9.212;2022-11-20T14:22:54;19.94;35.13
70170;DHT22;57543;45.442;9.212;2022-11-20T14:25:58;19.66;36.04
70170;DHT22;57543;45.442;9.212;2022-11-20T14:29:02;19.88;36.13
70170;DHT22;57543;45.442;9.212;2022-11-20T14:32:06;20.01;35.03
70170;DHT22;57543;45.442;9.212;2022-11-20T14:35:17;20.07;35.75
70170;DHT22;57543;45.442;9.212;2022-11-20T14:38:28;20.03;35.30
70170;DHT22;57543;45.442;9.212;2022-11-20T14:41:32;20.05;35.55
70170;DHT22;57543;45.442;9.212;2022-11-20T14:44:36;20.03;35.79
70170;DHT22;57543;45.442;9.212;2022-11-20T14:47:40;19.97;35.52
70170;DHT22;57543;45.442;9.212;2022-11-20T14:50:44;19.91;36.14
70170;DHT22;57543;45.442;9.212;2022-11-20T14:53:48;19.73;36.24
70170;DHT22;57543;45.442;9.212;2022-11-20T14:57:00;19.56;36.47
70170;DHT22;57543;45.442;9.212;2022-11-20T15:03:15;19.17;37.56
70170;DHT22;57543;45.442;9.212;2022-11-20T15:06:25;18.98;38.54
70170;DHT22;57543;45.442;9.212;2022-11-20T15:09:29;18.74;38.59
70170;DHT22;57543;45.442;9.212;2022-11-20T15:12:48;18.48;39.04
70170;DHT22;57543;45.442;9.212;2022-11-20T15:15:54;18.02;39.14
70170;DHT22;57543;45.442;9.212;2022-11-20T15:19:02;17.49;39.94
70170;DHT22;57543;45.442;9.212;2022-11-20T15:22:12;17.24;40.69
70170;DHT22;57543;45.442;9.212;2022-11-20T15:25:22;16.99;41.70
70170;DHT22;57543;45.442;9.212;2022-11-20T15:28:30;16.83;41.65
70170;DHT22;57543;45.442;9.212;2022-11-20T15:31:34;16.67;42.27
70170;DHT22;57543;45.442;9.212;2022-11-20T15:34:38;16.57;42.66
70170;DHT22;57543;45.442;9.212;2022-11-20T15:37:42;16.28;43.06
70170;DHT22;57543;45.442;9.212;2022-11-20T15:40:46;16.11;43.25
70170;DHT22;57543;45.442;9.212;2022-11-20T15:43:50;16.12;43.52
70170;DHT22;57543;45.442;9.212;2022-11-20T15:46:54;16.10;44.20
70170;DHT22;57543;45.442;9.212;2022-11-20T15:49:58;16.01;43.78
70170;DHT22;57543;45.442;9.212;2022-11-20T15:53:02;15.87;44.72
70170;DHT22;57543;45.442;9.212;2022-11-20T15:56:06;15.83;44.99
70170;DHT22;57543;45.442;9.212;2022-11-20T15:59:09;15.62;46.05
70170;DHT22;57543;45.442;9.212;2022-11-20T16:02:14;15.28;46.50
70170;DHT22;57543;45.442;9.212;2022-11-20T16:05:18;15.20;46.07
70170;DHT22;57543;45.442;9.212;2022-11-20T16:08:22;15.17;46.46
70170;DHT22;57543;45.442;9.212;2022-11-20T16:11:25;15.27;47.05
70170;DHT22;57543;45.442;9.212;2022-11-20T16:14:29;15.07;47.49
70170;DHT22;57543;45.442;9.212;2022-11-20T16:17:52;15.00;48.29
70170;DHT22;57543;45.442;9.212;2022-11-20T16:20:55;14.90;49.22
70170;DHT22;57543;45.442;9.212;2022-11-20T16:24:04;14.69;50.44
70170;DHT22;57543;45.442;9.212;2022-11-20T16:27:08;14.53;51.11
70170;DHT22;57543;45.442;9.212;2022-11-20T16:30:13;14.45;51.84
70170;DHT22;57543;45.442;9.212;2022-11-20T16:33:17;14.26;52.46
70170;DHT22;57543;45.442;9.212;2022-11-20T16:36:22;14.17;53.00
70170;DHT22;57543;45.442;9.212;2022-11-20T16:39:26;14.11;52.58
70170;DHT22;57543;45.442;9.212;2022-11-20T16:42:33;14.11;52.33
70170;DHT22;57543;45.442;9.212;2022-11-20T16:45:40;14.10;51.96
70170;DHT22;57543;45.442;9.212;2022-11-20T16:48:45;14.06;51.98
70170;DHT22;57543;45.442;9.212;2022-11-20T16:51:48;14.04;52.14
70170;DHT22;57543;45.442;9.212;2022-11-20T16:54:52;14.03;53.50
70170;DHT22;57543;45.442;9.212;2022-11-20T16:57:56;13.89;54.44
70170;DHT22;57543;45.442;9.212;2022-11-20T17:01:05;13.77;54.82
70170;DHT22;57543;45.442;9.212;2022-11-20T17:04:09;13.74;55.10
70170;DHT22;57543;45.442;9.212;2022-11-20T17:07:13;13.65;54.55
70170;DHT22;57543;45.442;9.212;2022-11-20T17:10:17;13.56;54.45
70170;DHT22;57543;45.442;9.212;2022-11-20T17:13:21;13.55;54.45
70170;DHT22;57543;45.442;9.212;2022-11-20T17:16:25;13.62;54.07
70170;DHT22;57543;45.442;9.212;2022-11-20T17:19:29;13.65;53.94
70170;DHT22;57543;45.442;9.212;2022-11-20T17:22:32;13.63;54.46
70170;DHT22;57543;45.442;9.212;2022-11-20T17:25:36;13.55;54.78
70170;DHT22;57543;45.442;9.212;2022-11-20T17:28:40;13.55;54.98
70170;DHT22;57543;45.442;9.212;2022-11-20T17:31:44;13.44;55.04
70170;DHT22;57543;45.442;9.212;2022-11-20T17:34:48;13.35;56.42
70170;DHT22;57543;45.442;9.212;2022-11-20T17:37:52;13.19;57.21
70170;DHT22;57543;45.442;9.212;2022-11-20T17:41:04;13.04;57.67
70170;DHT22;57543;45.442;9.212;2022-11-20T17:44:09;12.99;58.31
70170;DHT22;57543;45.442;9.212;2022-11-20T17:47:13;13.00;56.66
70170;DHT22;57543;45.442;9.212;2022-11-20T17:50:17;13.01;55.81
70170;DHT22;57543;45.442;9.212;2022-11-20T17:53:20;13.15;55.36
70170;DHT22;57543;45.442;9.212;2022-11-20T17:56:24;13.14;55.51
70170;DHT22;57543;45.442;9.212;2022-11-20T17:59:46;13.14;55.83
70170;DHT22;57543;45.442;9.212;2022-11-20T18:02:50;13.11;56.40
70170;DHT22;57543;45.442;9.212;2022-11-20T18:05:53;13.08;57.02
70170;DHT22;57543;45.442;9.212;2022-11-20T18:08:58;12.91;57.80
70170;DHT22;57543;45.442;9.212;2022-11-20T18:12:02;12.89;57.93
70170;DHT22;57543;45.442;9.212;2022-11-20T18:15:06;12.75;58.48
70170;DHT22;57543;45.442;9.212;2022-11-20T18:18:10;12.63;58.70
70170;DHT22;57543;45.442;9.212;2022-11-20T18:21:14;12.55;59.20
70170;DHT22;57543;45.442;9.212;2022-11-20T18:24:18;12.46;59.45
70170;DHT22;57543;45.442;9.212;2022-11-20T18:27:21;12.46;59.31
70170;DHT22;57543;45.442;9.212;2022-11-20T18:30:26;12.35;59.69
70170;DHT22;57543;45.442;9.212;2022-11-20T18:33:29;12.25;59.95
70170;DHT22;57543;45.442;9.212;2022-11-20T18:36:33;12.22;60.04
70170;DHT22;57543;45.442;9.212;2022-11-20T18:39:36;12.18;60.18
70170;DHT22;57543;45.442;9.212;2022-11-20T18:42:40;12.13;60.22
70170;DHT22;57543;45.442;9.212;2022-11-20T18:46:03;12.16;60.35
70170;DHT22;57543;45.442;9.212;2022-11-20T18:49:07;12.10;60.56
70170;DHT22;57543;45.442;9.212;2022-11-20T18:52:11;12.01;61.00
70170;DHT22;57543;45.442;9.212;2022-11-20T18:55:15;12.02;61.02
70170;DHT22;57543;45.442;9.212;2022-11-20T18:58:19;12.00;60.80
70170;DHT22;57543;45.442;9.212;2022-11-20T19:01:23;12.01;60.81
70170;DHT22;57543;45.442;9.212;2022-11-20T19:04:27;11.98;60.94
70170;DHT22;57543;45.442;9.212;2022-11-20T19:07:32;11.95;60.49
70170;DHT22;57543;45.442;9.212;2022-11-20T19:10:36;11.91;60.68
70170;DHT22;57543;45.442;9.212;2022-11-20T19:13:40;11.86;60.95
70170;DHT22;57543;45.442;9.212;2022-11-20T19:16:44;11.82;61.43
70170;DHT22;57543;45.442;9.212;2022-11-20T19:19:48;11.84;61.47
70170;DHT22;57543;45.442;9.212;2022-11-20T19:22:51;11.83;61.21
70170;DHT22;57543;45.442;9.212;2022-11-20T19:25:59;11.89;60.92
70170;DHT22;57543;45.442;9.212;2022-11-20T19:29:06;11.83;60.80
70170;DHT22;57543;45.442;9.212;2022-11-20T19:32:10;11.76;60.84
70170;DHT22;57543;45.442;9.212;2022-11-20T19:35:14;11.89;60.22
70170;DHT22;57543;45.442;9.212;2022-11-20T19:38:18;11.84;60.69
70170;DHT22;57543;45.442;9.212;2022-11-20T19:41:24;11.91;60.30
70170;DHT22;57543;45.442;9.212;2022-11-20T19:44:31;11.87;60.93
70170;DHT22;57543;45.442;9.212;2022-11-20T19:47:35;11.82;61.12
70170;DHT22;57543;45.442;9.212;2022-11-20T19:50:39;11.80;61.04
70170;DHT22;57543;45.442;9.212;2022-11-20T19:53:43;11.79;61.42
70170;DHT22;57543;45.442;9.212;2022-11-20T19:56:47;11.73;61.43
70170;DHT22;57543;45.442;9.212;2022-11-20T19:59:51;11.70;61.58
70170;DHT22;57543;45.442;9.212;2022-11-20T20:02:56;11.62;61.66
70170;DHT22;57543;45.442;9.212;2022-11-20T20:06:03;11.56;61.72
70170;DHT22;57543;45.442;9.212;2022-11-20T20:09:10;11.56;61.92
70170;DHT22;57543;45.442;9.212;2022-11-20T20:12:14;11.52;62.37
70170;DHT22;57543;45.442;9.212;2022-11-20T20:15:18;11.49;62.33
70170;DHT22;57543;45.442;9.212;2022-11-20T20:18:21;11.43;62.52
70170;DHT22;57543;45.442;9.212;2022-11-20T20:21:24;11.42;62.74
70170;DHT22;57543;45.442;9.212;2022-11-20T20:24:28;11.65;62.42
70170;DHT22;57543;45.442;9.212;2022-11-20T20:27:32;11.56;61.77
70170;DHT22;57543;45.442;9.212;2022-11-20T20:30:36;11.54;62.25
70170;DHT22;57543;45.442;9.212;2022-11-20T20:33:40;11.55;61.99
70170;DHT22;57543;45.442;9.212;2022-11-20T20:36:44;11.39;62.56
70170;DHT22;57543;45.442;9.212;2022-11-20T20:39:48;11.29;63.17
70170;DHT22;57543;45.442;9.212;2022-11-20T20:42:52;11.27;63.27
70170;DHT22;57543;45.442;9.212;2022-11-20T20:45:55;11.22;63.38